Time;durP1;ratioP1;P1;durP2;ratioP2;P2;SDS_P1;SDS_P2;PMS_P1;PMS_P2;Temp;Humidity;BMP_temperature;BMP_pressure;BME280_temperature;BME280_humidity;BME280_pressure;Samples;Min_cycle;Max_cycle;Signal;HPM_P1;HPM_P2
2023/10/08 00:00:43;;;;;;;13.13;5.05;;;;;;;16.88;100.00;102086.00;1257505;23;20015;-90
2023/10/08 00:01:16;;;;;;;24.85;5.55;;;;;;;16.83;100.00;102079.66;1247520;23;20015;-90
2023/10/08 00:01:47;;;;;;;14.65;4.43;;;;;;;16.82;100.00;102075.34;1261649;23;20025;-91
2023/10/08 00:02:22;;;;;;;15.65;5.30;;;;;;;16.80;100.00;102078.25;1261214;23;20026;-90
2023/10/08 00:02:54;;;;;;;16.80;4.80;;;;;;;16.81;100.00;102079.91;1262016;23;20022;-89
2023/10/08 00:03:29;;;;;;;19.38;7.80;;;;;;;16.80;100.00;102072.06;1255294;23;20097;-89
2023/10/08 00:04:04;;;;;;;20.42;5.10;;;;;;;16.78;100.00;102066.91;1261415;23;20025;-90
2023/10/08 00:04:37;;;;;;;17.38;4.97;;;;;;;16.73;100.00;102074.03;1255415;23;20025;-90
2023/10/08 00:05:09;;;;;;;11.40;4.03;;;;;;;16.78;100.00;102072.28;1249975;23;20048;-90
2023/10/08 00:05:41;;;;;;;13.95;5.25;;;;;;;16.78;100.00;102072.28;1259106;23;20480;-90
2023/10/08 00:06:14;;;;;;;11.32;4.18;;;;;;;16.83;100.00;102067.03;1270454;23;20080;-90
2023/10/08 00:06:52;;;;;;;21.08;7.13;;;;;;;16.81;100.00;102066.44;1262103;23;20018;-90
2023/10/08 00:07:24;;;;;;;16.17;5.15;;;;;;;16.81;100.00;102063.75;1252965;23;20038;-89
2023/10/08 00:07:55;;;;;;;20.33;5.07;;;;;;;16.81;100.00;102061.06;1250799;23;20022;-90
2023/10/08 00:08:27;;;;;;;18.23;4.85;;;;;;;16.78;100.00;102061.53;1242651;23;20016;-90
2023/10/08 00:09:06;;;;;;;14.45;4.13;;;;;;;16.74;100.00;102063.03;1246229;23;20176;-90
2023/10/08 00:09:38;;;;;;;22.00;6.28;;;;;;;16.77;100.00;102059.88;1253736;23;20022;-90
2023/10/08 00:10:09;;;;;;;11.82;5.57;;;;;;;16.76;100.00;102054.72;1258500;23;20015;-89
2023/10/08 00:10:42;;;;;;;12.02;4.20;;;;;;;16.76;100.00;102052.03;1249622;23;20522;-90
2023/10/08 00:11:15;;;;;;;17.67;5.30;;;;;;;16.74;100.00;102052.25;1250596;23;20087;-90
2023/10/08 00:11:53;;;;;;;13.32;5.35;;;;;;;16.78;100.00;102055.31;1246055;23;20696;-89
2023/10/08 00:12:25;;;;;;;15.55;4.40;;;;;;;16.80;100.00;102062.13;1255634;23;20094;-90
2023/10/08 00:12:58;;;;;;;13.60;4.80;;;;;;;16.82;100.00;102061.88;1253072;23;20023;-90
2023/10/08 00:13:29;;;;;;;10.05;4.50;;;;;;;16.68;100.00;102053.16;1255402;23;20147;-89
2023/10/08 00:14:01;;;;;;;16.23;5.05;;;;;;;16.71;100.00;102052.72;1252201;23;20012;-90
2023/10/08 00:14:32;;;;;;;14.50;4.68;;;;;;;16.72;100.00;102064.31;1248191;23;20019;-90
2023/10/08 00:15:09;;;;;;;19.60;6.00;;;;;;;16.74;100.00;102063.03;1237342;24;20385;-90
2023/10/08 00:15:52;;;;;;;8.60;4.15;;;;;;;16.70;100.00;102056.44;1239477;24;20450;-89
2023/10/08 00:16:26;;;;;;;20.92;4.78;;;;;;;16.71;100.00;102063.47;1248643;23;20087;-90
2023/10/08 00:16:58;;;;;;;15.93;6.03;;;;;;;16.71;100.00;102063.47;1252032;23;20403;-90
2023/10/08 00:17:31;;;;;;;13.00;4.43;;;;;;;16.69;100.00;102068.25;1241127;23;20028;-90
2023/10/08 00:18:04;;;;;;;17.75;5.35;;;;;;;16.72;100.00;102075.88;1237732;23;20020;-90
2023/10/08 00:18:38;;;;;;;16.58;7.00;;;;;;;16.73;100.00;102080.22;1246390;23;20016;-90
2023/10/08 00:19:13;;;;;;;14.57;3.67;;;;;;;16.73;100.00;102077.53;1243633;23;20023;-90
2023/10/08 00:19:45;;;;;;;17.75;4.80;;;;;;;16.71;100.00;102079.63;1252182;23;20022;-90
2023/10/08 00:20:25;;;;;;;11.02;4.85;;;;;;;16.66;100.00;102087.53;1251264;23;20019;-89
2023/10/08 00:21:45;;;;;;;17.48;4.93;;;;;;;16.62;100.00;102083.63;1254773;23;20026;-90
2023/10/08 00:22:18;;;;;;;17.88;5.50;;;;;;;16.60;100.00;102072.28;1248804;23;20018;-90
2023/10/08 00:22:49;;;;;;;18.65;4.20;;;;;;;16.61;100.00;102080.13;1247474;23;20023;-90
2023/10/08 00:23:25;;;;;;;21.08;5.68;;;;;;;16.63;100.00;102074.50;1243963;23;20019;-90
2023/10/08 00:24:00;;;;;;;15.77;4.57;;;;;;;16.68;100.00;102074.66;1243301;23;20027;-89
2023/10/08 00:24:33;;;;;;;19.30;5.53;;;;;;;16.68;100.00;102078.19;1243996;23;20012;-90
2023/10/08 00:25:11;;;;;;;16.85;5.18;;;;;;;16.66;100.00;102080.28;1253564;23;20015;-90
2023/10/08 00:25:47;;;;;;;15.77;6.97;;;;;;;16.68;100.00;102080.88;1252523;23;20027;-90
2023/10/08 00:26:27;;;;;;;27.17;4.53;;;;;;;16.70;100.00;102091.41;1250813;23;20023;-90
2023/10/08 00:27:00;;;;;;;10.18;4.82;;;;;;;16.75;100.00;102086.19;1247330;23;20103;-90
2023/10/08 00:27:38;;;;;;;19.95;5.60;;;;;;;16.76;100.00;102079.75;1248247;23;20015;-89
2023/10/08 00:28:10;;;;;;;14.90;4.50;;;;;;;16.73;100.00;102077.53;1237444;24;20163;-90
2023/10/08 00:28:42;;;;;;;15.20;4.43;;;;;;;16.70;100.00;102086.03;1244173;23;20016;-89
2023/10/08 00:29:17;;;;;;;10.75;5.03;;;;;;;16.65;100.00;102085.84;1249978;23;20026;-91
2023/10/08 00:29:49;;;;;;;17.38;4.57;;;;;;;16.66;100.00;102082.16;1247499;23;20102;-90
2023/10/08 00:30:21;;;;;;;11.07;5.10;;;;;;;16.65;100.00;102086.69;1248848;23;20446;-90
2023/10/08 00:30:55;;;;;;;10.90;4.25;;;;;;;16.67;100.00;102086.47;1245280;23;20019;-90
2023/10/08 00:31:31;;;;;;;19.27;5.75;;;;;;;16.66;100.00;102087.53;1238453;23;20024;-90
2023/10/08 00:32:11;;;;;;;12.90;4.38;;;;;;;16.65;100.00;102091.25;1241649;23;20670;-89
2023/10/08 00:32:44;;;;;;;9.82;4.30;;;;;;;16.59;100.00;102102.91;1243549;23;20016;-90
2023/10/08 00:33:17;;;;;;;13.68;5.68;;;;;;;16.57;100.00;102110.38;1249276;23;20091;-90
2023/10/08 00:33:48;;;;;;;14.65;4.50;;;;;;;16.59;100.00;102098.34;1248461;23;20031;-90
2023/10/08 00:34:20;;;;;;;19.98;6.38;;;;;;;16.62;100.00;102108.66;1250071;23;20015;-90
2023/10/08 00:34:52;;;;;;;15.70;5.32;;;;;;;16.63;100.00;102110.28;1242956;23;20532;-91
2023/10/08 00:35:24;;;;;;;24.80;5.28;;;;;;;16.63;100.00;102106.78;1247404;23;20074;-89
2023/10/08 00:35:56;;;;;;;9.38;4.90;;;;;;;16.65;100.00;102102.00;1248433;23;20015;-90
2023/10/08 00:36:28;;;;;;;12.68;4.38;;;;;;;16.66;100.00;102103.69;1244691;23;20022;-90
2023/10/08 00:36:59;;;;;;;14.52;5.30;;;;;;;16.63;100.00;102099.53;1244226;23;20015;-90
2023/10/08 00:37:31;;;;;;;15.82;4.80;;;;;;;16.60;100.00;102104.56;1250400;23;20015;-90
2023/10/08 00:38:03;;;;;;;14.05;5.35;;;;;;;16.60;100.00;102109.94;1256123;23;20411;-90
2023/10/08 00:38:35;;;;;;;15.07;4.80;;;;;;;16.62;100.00;102108.66;1253518;23;20023;-90
2023/10/08 00:39:13;;;;;;;12.30;4.82;;;;;;;16.56;100.00;102108.75;1248934;23;20015;-89
2023/10/08 00:39:45;;;;;;;18.13;5.97;;;;;;;16.50;100.00;102109.66;1241862;23;20049;-90
2023/10/08 00:40:21;;;;;;;11.60;3.95;;;;;;;16.53;100.00;102114.56;1252266;23;20019;-90
2023/10/08 00:40:55;;;;;;;10.48;4.53;;;;;;;16.51;100.00;102105.91;1247776;23;20024;-89
2023/10/08 00:41:32;;;;;;;13.77;5.32;;;;;;;16.46;100.00;102113.84;1253368;23;20019;-89
2023/10/08 00:42:06;;;;;;;15.57;5.13;;;;;;;16.51;100.00;102105.91;1251192;23;20139;-90
2023/10/08 00:42:45;;;;;;;18.15;5.32;;;;;;;16.57;100.00;102115.75;1245954;23;20016;-90
2023/10/08 00:43:35;;;;;;;20.55;5.20;;;;;;;16.50;100.00;102109.66;1241099;23;20023;-90
2023/10/08 00:44:07;;;;;;;13.55;4.43;;;;;;;16.57;100.00;102110.38;1238162;23;20406;-90
2023/10/08 00:44:57;;;;;;;18.80;5.13;;;;;;;16.70;100.00;102110.25;1250565;23;20019;-90
2023/10/08 00:45:30;;;;;;;16.92;4.53;;;;;;;16.66;100.00;102111.75;1248605;23;20121;-90
2023/10/08 00:46:18;;;;;;;16.42;5.18;;;;;;;16.67;100.00;102116.91;1243435;23;20051;-90
2023/10/08 00:46:50;;;;;;;11.63;4.78;;;;;;;16.65;100.00;102112.75;1239102;23;20088;-90
2023/10/08 00:47:26;;;;;;;16.67;5.60;;;;;;;16.66;100.00;102109.06;1243700;23;20030;-89
2023/10/08 00:47:58;;;;;;;16.98;6.38;;;;;;;16.65;100.00;102112.75;1249544;23;20026;-90
2023/10/08 00:48:36;;;;;;;21.17;6.28;;;;;;;16.61;100.00;102103.50;1244777;23;20043;-89
2023/10/08 00:50:19;;;;;;;15.93;5.10;;;;;;;16.67;100.00;102100.75;1242457;23;20020;-90
2023/10/08 00:50:52;;;;;;;14.82;6.05;;;;;;;16.67;100.00;102100.75;1254272;23;20015;-90
2023/10/08 00:51:31;;;;;;;11.63;4.35;;;;;;;16.62;100.00;102103.28;1252859;23;20019;-90
2023/10/08 00:52:45;;;;;;;12.57;4.75;;;;;;;16.72;100.00;102097.41;1249279;23;20075;-90
2023/10/08 00:53:21;;;;;;;14.88;5.13;;;;;;;16.69;100.00;102089.75;1242734;23;20019;-90
2023/10/08 00:54:08;;;;;;;15.93;3.97;;;;;;;16.60;100.00;102094.63;1249323;23;20011;-89
2023/10/08 00:55:33;;;;;;;14.65;4.28;;;;;;;16.66;100.00;102092.91;1243223;23;20022;-90
2023/10/08 00:56:13;;;;;;;13.93;5.47;;;;;;;16.66;100.00;102090.22;1245213;23;20011;-90
2023/10/08 00:57:29;;;;;;;11.93;4.70;;;;;;;16.61;100.00;102084.69;1244534;23;20026;-90
2023/10/08 00:58:08;;;;;;;9.27;4.70;;;;;;;16.65;100.00;102084.00;1243411;23;20027;-90
2023/10/08 00:58:42;;;;;;;24.02;4.82;;;;;;;16.68;100.00;102074.66;1248165;23;20094;-91
2023/10/08 00:59:15;;;;;;;19.35;5.28;;;;;;;16.67;100.00;102078.41;1253446;23;20022;-89
2023/10/08 00:59:53;;;;;;;11.10;4.55;;;;;;;16.63;100.00;102088.78;1255491;23;20570;-90
2023/10/08 01:00:33;;;;;;;11.93;4.80;;;;;;;16.67;100.00;102094.56;1252123;23;20027;-89
2023/10/08 01:01:10;;;;;;;19.10;5.35;;;;;;;16.71;100.00;102094.91;1248515;23;20071;-90
2023/10/08 01:01:51;;;;;;;23.02;4.97;;;;;;;16.70;100.00;102094.09;1243133;23;20509;-91
2023/10/08 01:02:28;;;;;;;12.77;4.40;;;;;;;16.70;100.00;102077.97;1237518;24;20199;-90
2023/10/08 01:03:00;;;;;;;23.45;6.35;;;;;;;16.68;100.00;102080.06;1238177;24;20020;-90
2023/10/08 01:03:35;;;;;;;18.30;6.38;;;;;;;16.67;100.00;102084.63;1252764;23;20030;-89
2023/10/08 01:04:11;;;;;;;17.73;5.50;;;;;;;16.69;100.00;102076.31;1253798;23;20026;-90
2023/10/08 01:04:43;;;;;;;22.25;5.55;;;;;;;16.65;100.00;102077.78;1252474;23;20140;-90
2023/10/08 01:05:24;;;;;;;14.30;4.88;;;;;;;16.65;100.00;102080.47;1244750;23;20172;-90
2023/10/08 01:05:57;;;;;;;10.90;5.03;;;;;;;16.65;100.00;102069.72;1256342;23;20019;-91
2023/10/08 01:06:29;;;;;;;19.48;5.32;;;;;;;16.68;100.00;102071.97;1246835;23;20028;-90
2023/10/08 01:07:15;;;;;;;17.40;6.05;;;;;;;16.71;100.00;102074.25;1251395;23;20011;-90
2023/10/08 01:07:51;;;;;;;16.77;5.53;;;;;;;16.73;100.00;102077.53;1251482;23;20051;-91
2023/10/08 01:08:47;;;;;;;24.42;6.22;;;;;;;16.70;100.00;102080.66;1257468;23;20079;-90
2023/10/08 01:09:21;;;;;;;18.95;5.13;;;;;;;16.73;100.00;102074.84;1254342;23;20078;-91
2023/10/08 01:09:59;;;;;;;13.45;5.25;;;;;;;16.79;100.00;102075.78;1249035;23;20106;-90
2023/10/08 01:10:31;;;;;;;11.48;6.03;;;;;;;16.77;100.00;102083.28;1253953;23;20019;-91
2023/10/08 01:11:31;;;;;;;17.02;5.28;;;;;;;16.68;100.00;102080.06;1249842;23;20019;-90
2023/10/08 01:12:15;;;;;;;13.68;4.43;;;;;;;16.58;100.00;102080.56;1266666;23;20081;-90
2023/10/08 01:13:12;;;;;;;11.05;4.47;;;;;;;16.61;100.00;102069.34;1264887;23;20029;-90
2023/10/08 01:13:45;;;;;;;11.43;4.07;;;;;;;16.63;100.00;102074.50;1272222;23;20014;-91
2023/10/08 01:14:24;;;;;;;15.23;5.25;;;;;;;16.73;100.00;102066.78;1268156;23;20092;-90
2023/10/08 01:15:07;;;;;;;13.02;5.90;;;;;;;16.69;100.00;102070.94;1255044;23;20111;-90
2023/10/08 01:15:41;;;;;;;12.35;4.47;;;;;;;16.63;100.00;102063.75;1244230;23;20144;-90
2023/10/08 01:16:14;;;;;;;12.05;5.38;;;;;;;16.61;100.00;102069.34;1261064;23;20069;-90
2023/10/08 01:16:47;;;;;;;28.75;8.15;;;;;;;16.67;100.00;102075.72;1254132;23;20074;-90
2023/10/08 01:17:24;;;;;;;17.83;5.90;;;;;;;16.64;100.00;102078.84;1247784;23;20027;-90
2023/10/08 01:18:14;;;;;;;15.25;4.50;;;;;;;16.69;100.00;102076.31;1255093;23;20022;-91
2023/10/08 01:18:56;;;;;;;12.93;4.25;;;;;;;16.79;100.00;102081.19;1249551;23;20027;-90
2023/10/08 01:19:28;;;;;;;12.18;4.93;;;;;;;16.72;100.00;102080.44;1262146;23;20048;-90
2023/10/08 01:20:52;;;;;;;15.40;4.28;;;;;;;16.58;100.00;102072.50;1264738;23;20018;-90
2023/10/08 01:21:34;;;;;;;16.38;4.57;;;;;;;16.54;100.00;102078.56;1264587;23;20022;-90
2023/10/08 01:22:07;;;;;;;14.15;4.78;;;;;;;16.60;100.00;102078.47;1267234;23;20018;-90
2023/10/08 01:22:40;;;;;;;11.50;5.43;;;;;;;16.64;100.00;102078.84;1261780;23;20015;-90
2023/10/08 01:23:16;;;;;;;17.02;5.45;;;;;;;16.62;100.00;102078.25;1250405;23;20023;-90
2023/10/08 01:23:49;;;;;;;16.98;4.88;;;;;;;16.58;100.00;102074.38;1255056;23;20077;-90
2023/10/08 01:24:24;;;;;;;16.10;4.85;;;;;;;16.54;100.00;102074.00;1252616;23;20015;-90
2023/10/08 01:24:56;;;;;;;21.75;5.50;;;;;;;16.55;100.00;102066.75;1257199;23;20468;-90
2023/10/08 01:25:29;;;;;;;13.00;4.32;;;;;;;16.51;100.00;102079.00;1251921;23;20023;-90
2023/10/08 01:26:22;;;;;;;22.58;4.82;;;;;;;16.56;100.00;102073.78;1242864;23;20023;-90
2023/10/08 01:26:54;;;;;;;21.05;4.88;;;;;;;16.54;100.00;102067.81;1250197;23;20031;-90
2023/10/08 01:27:34;;;;;;;10.23;4.30;;;;;;;16.51;100.00;102074.44;1252306;23;20101;-90
2023/10/08 01:28:14;;;;;;;19.65;4.88;;;;;;;16.54;100.00;102070.50;1266387;23;20014;-90
2023/10/08 01:28:46;;;;;;;12.38;4.40;;;;;;;16.52;100.00;102069.91;1262924;23;20019;-90
2023/10/08 01:29:20;;;;;;;14.63;5.03;;;;;;;16.49;100.00;102073.03;1243301;23;20019;-90
2023/10/08 01:29:52;;;;;;;19.13;5.55;;;;;;;16.49;100.00;102070.34;1254904;23;20015;-90
2023/10/08 01:30:24;;;;;;;15.10;5.85;;;;;;;16.49;100.00;102065.78;1261981;23;20411;-90
2023/10/08 01:31:00;;;;;;;16.63;5.80;;;;;;;16.41;100.00;102062.56;1252600;23;20102;-89
2023/10/08 01:31:32;;;;;;;14.25;4.00;;;;;;;16.26;100.00;102057.56;1255181;23;20019;-90
2023/10/08 01:32:13;;;;;;;18.50;5.65;;;;;;;16.24;100.00;102056.97;1255528;23;20023;-89
2023/10/08 01:32:45;;;;;;;9.10;4.45;;;;;;;16.09;100.00;102054.66;1261758;23;20157;-89
2023/10/08 01:33:20;;;;;;;13.30;4.60;;;;;;;15.98;100.00;102050.03;1265033;23;20025;-90
2023/10/08 01:33:56;;;;;;;13.98;3.97;;;;;;;16.06;100.00;102060.47;1263453;23;20014;-90
2023/10/08 01:34:30;;;;;;;13.63;5.55;;;;;;;16.22;100.00;102057.22;1257561;23;20022;-90
2023/10/08 01:35:05;;;;;;;14.90;5.43;;;;;;;16.27;100.00;102062.72;1255966;23;20030;-91
2023/10/08 01:35:37;;;;;;;10.93;3.83;;;;;;;16.15;100.00;102056.44;1260396;23;20011;-90
2023/10/08 01:36:12;;;;;;;13.60;4.63;;;;;;;16.25;100.00;102064.81;1257947;23;20015;-90
2023/10/08 01:36:44;;;;;;;14.18;4.60;;;;;;;16.28;100.00;102056.31;1265736;23;20414;-90
2023/10/08 01:37:17;;;;;;;10.50;4.65;;;;;;;16.29;100.00;102059.81;1255356;23;20109;-90
2023/10/08 01:37:50;;;;;;;16.90;4.43;;;;;;;16.27;100.00;102068.09;1256901;23;20522;-90
2023/10/08 01:38:26;;;;;;;8.25;3.50;;;;;;;16.33;100.00;102063.69;1254905;23;20034;-90
2023/10/08 01:38:58;;;;;;;14.57;5.50;;;;;;;16.25;100.00;102059.44;1263874;23;20014;-90
2023/10/08 01:39:32;;;;;;;9.43;4.38;;;;;;;16.25;100.00;102054.06;1261373;23;20067;-90
2023/10/08 01:40:06;;;;;;;12.05;4.78;;;;;;;16.23;100.00;102056.16;1260795;23;20069;-89
2023/10/08 01:40:38;;;;;;;9.57;4.00;;;;;;;16.45;100.00;102058.41;1260686;23;20058;-88
2023/10/08 01:41:18;;;;;;;17.50;5.47;;;;;;;16.37;100.00;102057.63;1258151;23;20220;-90
2023/10/08 01:41:51;;;;;;;13.80;4.43;;;;;;;16.42;100.00;102074.97;1260229;23;20026;-90
2023/10/08 01:42:23;;;;;;;22.25;6.15;;;;;;;16.42;100.00;102086.53;1261651;23;20026;-90
2023/10/08 01:42:55;;;;;;;13.57;4.85;;;;;;;16.43;100.00;102079.28;1255202;23;20019;-90
2023/10/08 01:43:27;;;;;;;17.58;5.63;;;;;;;16.17;100.00;102067.81;1250780;23;20019;-90
2023/10/08 01:43:59;;;;;;;14.68;4.13;;;;;;;16.18;100.00;102072.16;1256931;23;20066;-90
2023/10/08 01:44:33;;;;;;;14.52;4.43;;;;;;;16.26;100.00;102077.22;1256646;23;20026;-90
2023/10/08 01:45:07;;;;;;;11.82;4.88;;;;;;;16.32;100.00;102081.69;1253259;23;20018;-90
2023/10/08 01:45:43;;;;;;;12.55;4.00;;;;;;;16.33;100.00;102083.34;1249846;23;20015;-91
2023/10/08 01:46:16;;;;;;;12.52;5.82;;;;;;;16.36;100.00;102090.97;1249998;23;20368;-90
2023/10/08 01:46:49;;;;;;;13.38;5.30;;;;;;;16.41;100.00;102084.06;1248414;23;20015;-90
2023/10/08 01:47:25;;;;;;;10.85;4.78;;;;;;;16.43;100.00;102093.56;1244066;23;20026;-90
2023/10/08 01:47:57;;;;;;;12.27;5.10;;;;;;;16.39;100.00;102087.81;1253062;23;20026;-89
2023/10/08 01:48:36;;;;;;;11.55;4.65;;;;;;;16.33;100.00;102090.59;1254019;23;20022;-91
2023/10/08 01:49:14;;;;;;;13.07;3.47;;;;;;;16.43;100.00;102104.31;1258084;23;20015;-90
2023/10/08 01:49:46;;;;;;;25.98;7.30;;;;;;;16.47;100.00;102104.72;1249155;23;20130;-90
2023/10/08 01:50:21;;;;;;;10.93;5.75;;;;;;;16.44;100.00;102099.78;1249409;23;20576;-90
2023/10/08 01:50:55;;;;;;;16.98;5.32;;;;;;;16.39;100.00;102098.56;1263820;23;20026;-89
2023/10/08 01:51:36;;;;;;;12.85;3.85;;;;;;;16.38;100.00;102102.31;1263893;23;20033;-90
2023/10/08 01:52:13;;;;;;;11.82;4.30;;;;;;;16.43;100.00;102098.94;1249832;23;20056;-90
2023/10/08 01:52:46;;;;;;;12.55;3.90;;;;;;;16.51;100.00;102103.22;1257116;23;20219;-90
2023/10/08 01:53:20;;;;;;;17.90;4.93;;;;;;;16.54;100.00;102102.75;1256063;23;20026;-90
2023/10/08 01:53:55;;;;;;;19.35;4.63;;;;;;;16.62;100.00;102102.47;1249830;23;20019;-89
2023/10/08 01:54:27;;;;;;;18.05;5.35;;;;;;;16.68;100.00;102106.97;1248793;23;20476;-90
2023/10/08 01:54:59;;;;;;;13.93;4.82;;;;;;;16.67;100.00;102094.56;1252636;23;20015;-90
2023/10/08 01:55:33;;;;;;;15.43;5.00;;;;;;;16.60;100.00;102096.47;1261407;23;20042;-90
2023/10/08 01:56:05;;;;;;;20.40;5.80;;;;;;;16.50;100.00;102093.50;1250054;23;20019;-90
2023/10/08 01:56:41;;;;;;;9.52;3.70;;;;;;;16.41;100.00;102095.66;1254593;23;20026;-90
2023/10/08 01:57:14;;;;;;;14.88;4.70;;;;;;;16.33;100.00;102094.09;1254612;23;20432;-90
2023/10/08 01:57:46;;;;;;;11.05;4.88;;;;;;;16.37;100.00;102099.84;1248431;23;20015;-90
2023/10/08 01:58:18;;;;;;;13.35;5.03;;;;;;;16.35;100.00;102097.38;1254122;23;20030;-90
2023/10/08 01:58:51;;;;;;;18.00;4.55;;;;;;;16.32;100.00;102102.38;1249745;23;20492;-89
2023/10/08 01:59:23;;;;;;;13.23;4.60;;;;;;;16.34;100.00;102100.28;1256150;23;20105;-89
2023/10/08 01:59:55;;;;;;;16.45;4.90;;;;;;;16.40;100.00;102104.78;1256346;23;20026;-90
2023/10/08 02:00:27;;;;;;;20.30;4.80;;;;;;;16.41;100.00;102102.91;1266417;23;20022;-91
2023/10/08 02:00:59;;;;;;;12.20;4.00;;;;;;;16.46;100.00;102103.06;1269620;23;20021;-90
2023/10/08 02:01:31;;;;;;;13.35;5.05;;;;;;;16.45;100.00;102104.13;1261856;23;20019;-90
2023/10/08 02:02:05;;;;;;;10.70;4.47;;;;;;;16.46;100.00;102108.47;1264545;23;20022;-90
2023/10/08 02:02:40;;;;;;;17.10;4.28;;;;;;;16.39;100.00;102105.81;1263954;23;20010;-90
2023/10/08 02:03:17;;;;;;;10.50;4.32;;;;;;;16.38;100.00;102098.78;1264915;23;20038;-91
2023/10/08 02:03:49;;;;;;;9.45;3.88;;;;;;;16.25;100.00;102096.25;1259190;23;20026;-90
2023/10/08 02:04:22;;;;;;;11.23;4.53;;;;;;;16.22;100.00;102100.22;1258294;23;20478;-90
2023/10/08 02:04:54;;;;;;;10.60;5.00;;;;;;;16.30;100.00;102102.59;1257404;23;20026;-90
2023/10/08 02:05:26;;;;;;;17.10;4.80;;;;;;;16.36;100.00;102099.03;1249622;23;20099;-90
2023/10/08 02:05:59;;;;;;;8.52;4.85;;;;;;;16.38;100.00;102102.31;1254943;23;20019;-90
2023/10/08 02:06:31;;;;;;;14.98;5.20;;;;;;;16.38;100.00;102113.06;1258090;23;20023;-90
2023/10/08 02:07:03;;;;;;;8.38;4.22;;;;;;;16.41;100.00;102122.56;1261727;23;20018;-90
2023/10/08 02:07:35;;;;;;;13.13;5.40;;;;;;;16.43;100.00;102122.31;1261960;23;20025;-89
2023/10/08 02:08:07;;;;;;;18.60;5.45;;;;;;;16.39;100.00;102124.63;1254320;23;20014;-90
2023/10/08 02:08:38;;;;;;;9.65;4.15;;;;;;;16.45;100.00;102133.72;1248082;23;20015;-89
2023/10/08 02:09:10;;;;;;;19.30;4.82;;;;;;;16.45;100.00;102142.59;1248554;23;20206;-90
2023/10/08 02:09:42;;;;;;;10.52;4.47;;;;;;;16.47;100.00;102147.75;1244329;23;20016;-91
2023/10/08 02:10:14;;;;;;;14.77;5.22;;;;;;;16.48;100.00;102142.16;1251148;23;20042;-91
2023/10/08 02:10:47;;;;;;;14.27;4.95;;;;;;;16.38;100.00;102134.56;1251054;23;20015;-90
2023/10/08 02:11:20;;;;;;;10.25;4.10;;;;;;;16.46;100.00;102133.47;1261421;23;20022;-91
2023/10/08 02:11:53;;;;;;;14.38;4.20;;;;;;;16.43;100.00;102130.38;1265029;23;20100;-90
2023/10/08 02:12:25;;;;;;;8.68;4.63;;;;;;;16.42;100.00;102128.75;1264520;23;20375;-91
2023/10/08 02:12:56;;;;;;;12.55;4.75;;;;;;;16.44;100.00;102140.13;1255641;23;20026;-90
2023/10/08 02:13:30;;;;;;;17.33;4.82;;;;;;;16.47;100.00;102129.75;1261396;23;20113;-90
2023/10/08 02:14:04;;;;;;;13.63;5.50;;;;;;;16.62;100.00;102134.75;1262991;23;20034;-91
2023/10/08 02:14:40;;;;;;;20.80;4.90;;;;;;;16.70;100.00;102137.16;1257627;23;20018;-90
2023/10/08 02:15:12;;;;;;;12.13;5.63;;;;;;;16.68;100.00;102133.88;1262581;23;20021;-91
2023/10/08 02:15:45;;;;;;;14.27;3.90;;;;;;;16.63;100.00;102141.75;1262149;23;20042;-90
2023/10/08 02:16:22;;;;;;;20.92;5.50;;;;;;;16.58;100.00;102133.53;1254796;23;20110;-90
2023/10/08 02:16:56;;;;;;;15.43;4.38;;;;;;;16.57;100.00;102145.34;1257250;23;20026;-91
2023/10/08 02:17:28;;;;;;;15.00;4.40;;;;;;;16.43;100.00;102135.78;1250077;23;20023;-91
2023/10/08 02:18:00;;;;;;;18.58;5.10;;;;;;;16.49;100.00;102134.91;1260206;23;20029;-90
2023/10/08 02:18:32;;;;;;;11.18;4.93;;;;;;;16.56;100.00;102141.03;1264165;23;20014;-90
2023/10/08 02:19:06;;;;;;;8.43;3.67;;;;;;;16.56;100.00;102141.84;1261473;23;20561;-90
2023/10/08 02:19:38;;;;;;;13.65;4.38;;;;;;;16.52;100.00;102151.41;1264362;23;20091;-90
2023/10/08 02:20:11;;;;;;;14.02;6.13;;;;;;;16.46;100.00;102146.94;1262957;23;20522;-90
2023/10/08 02:20:43;;;;;;;19.35;5.55;;;;;;;16.48;100.00;102149.41;1257174;23;20034;-90
2023/10/08 02:21:15;;;;;;;12.25;5.32;;;;;;;16.59;100.00;102162.09;1254022;23;20213;-91
2023/10/08 02:21:47;;;;;;;17.25;4.88;;;;;;;16.60;100.00;102164.56;1255262;23;20022;-90
2023/10/08 02:22:19;;;;;;;19.55;6.25;;;;;;;16.60;100.00;102161.88;1251862;23;20015;-90
2023/10/08 02:22:52;;;;;;;13.23;4.28;;;;;;;16.67;100.00;102164.50;1255462;23;20074;-90
2023/10/08 02:23:23;;;;;;;22.75;5.35;;;;;;;16.71;100.00;102167.56;1248309;23;20042;-90
2023/10/08 02:23:55;;;;;;;13.82;4.90;;;;;;;16.76;100.00;102162.34;1250904;23;20042;-90
2023/10/08 02:24:29;;;;;;;13.77;4.70;;;;;;;16.75;100.00;102166.91;1252156;23;20023;-90
2023/10/08 02:25:01;;;;;;;16.02;6.40;;;;;;;16.74;100.00;102173.34;1256464;23;20014;-90
2023/10/08 02:25:37;;;;;;;13.65;4.75;;;;;;;16.72;100.00;102175.44;1257301;23;20015;-90
2023/10/08 02:26:09;;;;;;;15.27;5.20;;;;;;;16.69;100.00;102183.94;1258078;23;20046;-89
2023/10/08 02:26:42;;;;;;;15.57;4.32;;;;;;;16.65;100.00;102177.34;1257339;23;20468;-89
2023/10/08 02:27:15;;;;;;;12.70;4.68;;;;;;;16.61;100.00;102181.53;1254242;23;20098;-90
2023/10/08 02:27:48;;;;;;;16.08;4.32;;;;;;;16.60;100.00;102177.19;1255150;23;20019;-90
2023/10/08 02:28:20;;;;;;;10.65;4.10;;;;;;;16.56;100.00;102173.31;1242721;23;20023;-90
2023/10/08 02:28:52;;;;;;;13.98;4.00;;;;;;;16.54;100.00;102170.00;1248340;23;20055;-91
2023/10/08 02:29:29;;;;;;;11.45;4.05;;;;;;;16.44;100.00;102161.66;1251070;23;20035;-91
2023/10/08 02:30:03;;;;;;;9.38;5.25;;;;;;;16.50;100.00;102158.06;1261848;23;20015;-90
2023/10/08 02:30:36;;;;;;;13.43;4.90;;;;;;;16.47;100.00;102161.19;1255673;23;20078;-90
2023/10/08 02:31:08;;;;;;;9.95;4.03;;;;;;;16.51;100.00;102154.31;1257097;23;20011;-90
2023/10/08 02:31:40;;;;;;;11.93;4.30;;;;;;;16.69;100.00;102152.47;1262017;23;20065;-90
2023/10/08 02:32:13;;;;;;;11.88;5.18;;;;;;;16.62;100.00;102156.25;1258407;23;20019;-90
2023/10/08 02:32:46;;;;;;;11.88;4.03;;;;;;;16.41;100.00;102143.25;1259038;23;20489;-90
2023/10/08 02:33:18;;;;;;;16.45;4.75;;;;;;;16.18;100.00;102139.34;1266444;23;20253;-89
2023/10/08 02:33:49;;;;;;;19.02;5.53;;;;;;;16.29;100.00;102141.31;1261327;23;20070;-90
2023/10/08 02:34:22;;;;;;;12.27;5.70;;;;;;;16.41;100.00;102149.44;1254022;23;20026;-90
2023/10/08 02:34:54;;;;;;;7.10;3.65;;;;;;;16.38;100.00;102149.88;1255629;23;20019;-90
2023/10/08 02:35:27;;;;;;;15.00;4.45;;;;;;;16.43;100.00;102151.91;1261858;23;20233;-90
2023/10/08 02:36:01;;;;;;;16.35;4.88;;;;;;;16.45;100.00;102152.53;1255962;23;20475;-89
2023/10/08 02:36:32;;;;;;;17.40;4.88;;;;;;;16.52;100.00;102147.91;1255430;23;20019;-90
2023/10/08 02:37:04;;;;;;;21.77;6.43;;;;;;;16.61;100.00;102154.63;1258195;23;20503;-90
2023/10/08 02:37:39;;;;;;;21.80;5.07;;;;;;;16.62;100.00;102159.78;1258735;23;20102;-90
2023/10/08 02:38:18;;;;;;;13.13;4.25;;;;;;;16.57;100.00;102164.19;1255482;23;20021;-89
2023/10/08 02:38:50;;;;;;;12.50;4.55;;;;;;;16.71;100.00;102165.72;1248725;23;20045;-90
2023/10/08 02:39:25;;;;;;;12.63;4.88;;;;;;;16.76;100.00;102168.56;1249529;23;20380;-89
2023/10/08 02:39:57;;;;;;;13.95;5.88;;;;;;;16.66;100.00;102168.25;1255039;23;20432;-90
2023/10/08 02:40:30;;;;;;;7.30;3.25;;;;;;;16.36;100.00;102163.56;1251316;23;20018;-89
2023/10/08 02:41:06;;;;;;;10.02;3.58;;;;;;;16.07;100.00;102172.31;1252597;23;20068;-89
2023/10/08 02:41:41;;;;;;;8.40;3.20;;;;;;;15.91;100.00;102186.31;1255723;23;20023;-89
2023/10/08 02:42:14;;;;;;;8.75;3.60;;;;;;;15.82;100.00;102198.34;1256702;23;20019;-89
2023/10/08 02:42:48;;;;;;;3.17;2.85;;;;;;;15.81;100.00;102196.72;1248275;23;20023;-89